createdAt,value
2023-04-07T00:01:08.429Z,1.73
2023-04-07T00:03:35.887Z,1.63
2023-04-07T00:06:03.204Z,1.71
2023-04-07T00:08:30.441Z,1.59
2023-04-07T00:10:58.585Z,1.75
2023-04-07T00:13:26.363Z,1.65
2023-04-07T00:15:53.698Z,1.93
2023-04-07T00:18:20.951Z,1.84
2023-04-07T00:20:48.221Z,1.71
2023-04-07T00:23:15.709Z,1.72
2023-04-07T00:25:42.861Z,1.80
2023-04-07T00:28:10.234Z,1.58
2023-04-07T00:30:37.578Z,1.59
2023-04-07T00:33:04.977Z,1.87
2023-04-07T00:35:37.157Z,1.94
2023-04-07T00:38:04.499Z,1.97
2023-04-07T00:40:31.832Z,1.82
2023-04-07T00:42:59.089Z,1.78
2023-04-07T00:45:26.409Z,1.55
2023-04-07T00:47:53.810Z,1.43
2023-04-07T00:50:21.367Z,1.40
2023-04-07T00:52:48.824Z,1.61
2023-04-07T00:55:16.038Z,1.38
2023-04-07T00:57:43.320Z,1.66
2023-04-07T01:00:11.174Z,1.56
2023-04-07T01:03:06.550Z,1.43
2023-04-07T01:05:59.289Z,1.42
2023-04-07T01:08:42.949Z,1.66
2023-04-07T01:11:28.498Z,1.70
2023-04-07T01:14:00.469Z,1.67
2023-04-07T01:17:01.261Z,1.81
2023-04-07T01:19:39.930Z,1.82
2023-04-07T01:22:15.455Z,1.86
2023-04-07T01:25:30.513Z,1.90
2023-04-07T01:28:32.427Z,1.90
2023-04-07T01:31:01.818Z,2.06
2023-04-07T01:33:32.712Z,1.99
2023-04-07T01:36:03.077Z,2.05
2023-04-07T01:38:31.201Z,1.96
2023-04-07T01:41:00.781Z,1.91
2023-04-07T01:43:28.918Z,1.91
2023-04-07T01:45:57.748Z,1.92
2023-04-07T01:48:26.037Z,2.20
2023-04-07T01:50:54.835Z,2.06
2023-04-07T01:53:23.321Z,2.01
2023-04-07T01:55:50.953Z,1.90
2023-04-07T01:58:18.305Z,1.62
2023-04-07T02:00:45.596Z,1.88
2023-04-07T02:03:52.900Z,1.88
2023-04-07T02:06:33.673Z,2.02
2023-04-07T02:09:06.918Z,1.81
2023-04-07T02:11:36.204Z,1.92
2023-04-07T02:14:07.407Z,2.06
2023-04-07T02:16:48.863Z,2.02
2023-04-07T02:19:16.708Z,1.89
2023-04-07T02:21:46.198Z,2.02
2023-04-07T02:24:13.593Z,2.28
2023-04-07T02:26:41.919Z,2.05
2023-04-07T02:29:09.295Z,2.26
2023-04-07T02:31:37.037Z,2.18
2023-04-07T02:34:04.326Z,2.26
2023-04-07T02:36:32.994Z,2.28
2023-04-07T02:39:00.386Z,2.41
2023-04-07T02:41:27.604Z,2.28
2023-04-07T02:43:55.012Z,2.29
2023-04-07T02:46:22.364Z,2.34
2023-04-07T02:48:49.568Z,2.25
2023-04-07T02:51:16.749Z,2.14
2023-04-07T02:53:44.076Z,1.96
2023-04-07T02:56:12.090Z,2.01
2023-04-07T02:58:39.319Z,2.06
2023-04-07T03:01:06.860Z,2.16
2023-04-07T03:03:35.550Z,2.06
2023-04-07T03:06:09.094Z,2.25
2023-04-07T03:08:43.367Z,2.15
2023-04-07T03:11:10.979Z,2.05
2023-04-07T03:13:38.632Z,1.81
2023-04-07T03:16:06.134Z,1.87
2023-04-07T03:18:41.533Z,1.86
2023-04-07T03:21:09.793Z,1.97
2023-04-07T03:23:37.165Z,2.09
2023-04-07T03:26:04.538Z,2.27
2023-04-07T03:28:35.579Z,2.24
2023-04-07T03:31:03.792Z,2.05
2023-04-07T03:33:31.004Z,2.28
2023-04-07T03:35:58.198Z,2.43
2023-04-07T03:38:26.785Z,1.89
2023-04-07T03:40:57.904Z,2.03
2023-04-07T03:43:25.561Z,2.01
2023-04-07T03:45:56.041Z,1.93
2023-04-07T03:48:24.795Z,1.95
2023-04-07T03:51:01.910Z,2.16
2023-04-07T03:53:29.179Z,2.00
2023-04-07T03:55:57.511Z,2.25
2023-04-07T03:58:42.769Z,2.12
2023-04-07T04:01:14.835Z,2.26
2023-04-07T04:03:44.385Z,2.30
2023-04-07T04:06:27.321Z,2.29
2023-04-07T04:09:01.404Z,2.49
2023-04-07T04:11:29.799Z,2.52
2023-04-07T04:14:03.697Z,2.56
2023-04-07T04:16:33.036Z,2.36
2023-04-07T04:19:04.453Z,2.00
2023-04-07T04:21:31.995Z,2.07
2023-04-07T04:23:59.369Z,2.09
2023-04-07T04:26:29.967Z,2.05
2023-04-07T04:29:03.596Z,2.07
2023-04-07T04:31:31.057Z,2.26
2023-04-07T04:33:59.259Z,2.25
2023-04-07T04:36:27.593Z,2.29
2023-04-07T04:38:59.558Z,2.46
2023-04-07T04:41:26.755Z,2.42
2023-04-07T04:43:54.041Z,2.33
2023-04-07T04:46:25.980Z,2.44
2023-04-07T04:48:54.209Z,2.36
2023-04-07T04:51:23.164Z,2.36
2023-04-07T04:53:58.405Z,2.33
2023-04-07T04:56:27.226Z,2.48
2023-04-07T04:58:54.923Z,2.58
2023-04-07T05:01:48.596Z,2.15
2023-04-07T05:04:18.007Z,1.96
2023-04-07T05:06:51.999Z,2.10
2023-04-07T05:09:22.509Z,2.12
2023-04-07T05:11:50.444Z,2.33
2023-04-07T05:14:18.146Z,2.29
2023-04-07T05:16:52.948Z,2.53
2023-04-07T05:19:23.412Z,2.30
2023-04-07T05:21:54.263Z,2.21
2023-04-07T05:24:22.935Z,2.28
2023-04-07T05:26:57.164Z,2.23
2023-04-07T05:29:25.177Z,2.42
2023-04-07T05:31:53.152Z,2.41
2023-04-07T05:34:22.618Z,2.50
2023-04-07T05:36:54.109Z,2.43
2023-04-07T05:39:22.261Z,2.41
2023-04-07T05:41:52.723Z,2.28
2023-04-07T05:44:24.277Z,2.54
2023-04-07T05:46:51.848Z,2.83
2023-04-07T05:49:22.422Z,2.87
2023-04-07T05:51:58.134Z,2.82
2023-04-07T05:54:25.678Z,2.73
2023-04-07T05:56:53.557Z,2.61
2023-04-07T05:59:22.153Z,2.63
2023-04-07T06:01:51.420Z,2.71
2023-04-07T06:04:18.912Z,2.62
2023-04-07T06:06:49.049Z,2.81
2023-04-07T06:09:18.775Z,2.74
2023-04-07T06:11:47.166Z,2.66
2023-04-07T06:14:18.169Z,2.87
2023-04-07T06:16:45.887Z,2.49
2023-04-07T06:19:13.296Z,2.50
2023-04-07T06:21:40.883Z,2.55
2023-04-07T06:24:08.425Z,2.64
2023-04-07T06:26:36.331Z,2.64
2023-04-07T06:29:03.641Z,2.99
2023-04-07T06:31:30.853Z,2.97
2023-04-07T06:33:58.236Z,3.06
2023-04-07T06:36:25.666Z,2.97
2023-04-07T06:38:53.906Z,2.96
2023-04-07T06:41:21.203Z,3.09
2023-04-07T06:43:53.435Z,3.49
2023-04-07T06:46:21.377Z,3.23
2023-04-07T06:48:48.746Z,3.41
2023-04-07T06:51:16.020Z,3.17
2023-04-07T06:53:44.377Z,3.50
2023-04-07T06:56:13.196Z,3.63
2023-04-07T06:58:40.776Z,3.54
2023-04-07T07:01:08.208Z,3.61
2023-04-07T07:03:35.902Z,3.62
2023-04-07T07:06:07.311Z,4.07
2023-04-07T07:08:34.823Z,3.98
2023-04-07T07:11:02.248Z,4.07
2023-04-07T07:13:29.611Z,4.14
2023-04-07T07:15:56.957Z,3.68
2023-04-07T07:18:24.533Z,3.68
2023-04-07T07:20:52.184Z,3.35
2023-04-07T07:23:19.658Z,3.57
2023-04-07T07:25:47.090Z,3.65
2023-04-07T07:28:14.424Z,3.70
2023-04-07T07:30:41.826Z,3.57
2023-04-07T07:33:09.074Z,3.37
2023-04-07T07:35:38.012Z,3.76
2023-04-07T07:38:05.493Z,3.25
2023-04-07T07:40:33.666Z,3.20
2023-04-07T07:43:01.496Z,3.37
2023-04-07T07:45:28.876Z,3.39
2023-04-07T07:47:56.249Z,3.69
2023-04-07T07:50:23.647Z,4.14
2023-04-07T07:52:51.047Z,4.02
2023-04-07T07:55:18.501Z,4.15
2023-04-07T07:57:45.806Z,3.99
2023-04-07T08:00:13.909Z,4.01
2023-04-07T08:02:41.619Z,4.18
2023-04-07T08:05:09.359Z,4.05
2023-04-07T08:07:36.831Z,4.31
2023-04-07T08:10:04.719Z,4.46
2023-04-07T08:12:32.109Z,4.14
2023-04-07T08:14:59.419Z,4.42
2023-04-07T08:17:26.839Z,3.94
2023-04-07T08:19:54.168Z,4.74
2023-04-07T08:22:21.475Z,4.58
2023-04-07T08:24:48.881Z,4.60
2023-04-07T08:27:16.100Z,3.83
2023-04-07T08:29:43.433Z,4.34
2023-04-07T08:32:11.162Z,4.44
2023-04-07T08:34:38.367Z,4.51
2023-04-07T08:37:05.580Z,4.85
2023-04-07T08:39:33.477Z,4.42
2023-04-07T08:42:01.139Z,4.44
2023-04-07T08:44:29.922Z,4.70
2023-04-07T08:47:01.288Z,4.81
2023-04-07T08:49:31.669Z,4.70
2023-04-07T08:52:02.940Z,5.23
2023-04-07T08:54:33.991Z,5.09
2023-04-07T08:57:02.878Z,5.48
2023-04-07T08:59:33.669Z,5.25
2023-04-07T09:02:02.358Z,5.35
2023-04-07T09:04:29.914Z,5.39
2023-04-07T09:06:57.191Z,5.07
2023-04-07T09:09:24.589Z,4.93
2023-04-07T09:11:52.865Z,5.32
2023-04-07T09:14:21.918Z,5.26
2023-04-07T09:16:49.330Z,5.54
2023-04-07T09:19:16.581Z,4.90
2023-04-07T09:21:53.114Z,4.90
2023-04-07T09:24:28.541Z,4.55
2023-04-07T09:27:17.610Z,4.85
2023-04-07T09:29:47.846Z,5.17
2023-04-07T09:32:44.656Z,5.69
2023-04-07T09:35:12.146Z,5.43
2023-04-07T09:37:39.424Z,4.81
2023-04-07T09:40:07.882Z,4.98
2023-04-07T09:42:37.385Z,4.84
2023-04-07T09:45:05.101Z,4.31
2023-04-07T09:47:33.343Z,4.62
2023-04-07T09:50:07.005Z,4.94
2023-04-07T09:52:52.907Z,5.37
2023-04-07T09:55:24.531Z,5.44
2023-04-07T09:57:52.910Z,5.18
2023-04-07T10:00:20.275Z,5.24
2023-04-07T10:02:48.185Z,5.06
2023-04-07T10:05:15.979Z,4.54
2023-04-07T10:07:43.961Z,4.24
2023-04-07T10:10:11.690Z,4.09
2023-04-07T10:12:39.395Z,4.30
2023-04-07T10:15:07.522Z,4.04
2023-04-07T10:17:37.384Z,4.04
2023-04-07T10:20:07.549Z,4.38
2023-04-07T10:22:36.672Z,4.66
2023-04-07T10:25:16.731Z,4.78
2023-04-07T10:27:51.379Z,4.57
2023-04-07T10:30:27.244Z,4.59
2023-04-07T10:32:55.901Z,4.64
2023-04-07T10:35:24.027Z,4.67
2023-04-07T10:38:16.832Z,4.89
2023-04-07T10:40:44.544Z,4.92
2023-04-07T10:43:12.406Z,4.87
2023-04-07T10:45:59.812Z,4.23
2023-04-07T10:48:29.095Z,4.43
2023-04-07T10:51:05.582Z,4.39
2023-04-07T10:53:33.111Z,4.13
2023-04-07T10:56:01.053Z,3.65
2023-04-07T10:58:33.400Z,3.47
2023-04-07T11:01:00.743Z,3.61
2023-04-07T11:03:30.641Z,3.83
2023-04-07T11:06:08.439Z,3.68
2023-04-07T11:08:38.252Z,3.87
2023-04-07T11:11:09.490Z,4.02
2023-04-07T11:13:51.477Z,4.37
2023-04-07T11:16:34.634Z,4.32
2023-04-07T11:19:02.083Z,4.33
2023-04-07T11:21:30.511Z,4.66
2023-04-07T11:23:57.733Z,4.66
2023-04-07T11:26:25.170Z,4.87
2023-04-07T11:28:55.772Z,4.99
2023-04-07T11:31:27.652Z,5.30
2023-04-07T11:34:00.776Z,4.92
2023-04-07T11:36:35.995Z,4.86
2023-04-07T11:39:04.188Z,5.12
2023-04-07T11:41:33.594Z,5.05
2023-04-07T11:44:11.445Z,4.84
2023-04-07T11:46:55.012Z,4.70
2023-04-07T11:49:27.956Z,4.70
2023-04-07T11:52:00.915Z,4.57
2023-04-07T11:54:38.694Z,4.23
2023-04-07T11:57:06.103Z,3.86
2023-04-07T11:59:33.389Z,4.07
2023-04-07T12:02:00.778Z,3.88
2023-04-07T12:04:28.205Z,4.16
2023-04-07T12:06:55.601Z,3.91
2023-04-07T12:09:29.315Z,4.30
2023-04-07T12:11:57.950Z,4.33
2023-04-07T12:14:27.681Z,4.07
2023-04-07T12:16:57.769Z,4.09
2023-04-07T12:19:28.339Z,4.36
2023-04-07T12:21:56.983Z,4.18
2023-04-07T12:24:24.558Z,4.21
2023-04-07T12:26:51.953Z,4.12
2023-04-07T12:29:20.411Z,4.10
2023-04-07T12:31:50.868Z,4.15
2023-04-07T12:34:19.170Z,3.98
2023-04-07T12:36:46.562Z,4.05
2023-04-07T12:39:14.094Z,3.66
2023-04-07T12:41:42.012Z,3.61
2023-04-07T12:44:10.061Z,3.70
2023-04-07T12:46:37.382Z,4.00
2023-04-07T12:49:04.628Z,4.22
2023-04-07T12:51:33.611Z,4.24
2023-04-07T12:54:01.022Z,3.87
2023-04-07T12:56:28.817Z,4.01
2023-04-07T12:58:56.044Z,3.97
2023-04-07T13:01:23.573Z,3.66
2023-04-07T13:03:51.489Z,3.76
2023-04-07T13:06:19.451Z,3.98
2023-04-07T13:08:46.764Z,4.10
2023-04-07T13:11:14.104Z,3.99
2023-04-07T13:13:41.318Z,4.25
2023-04-07T13:16:09.162Z,4.15
2023-04-07T13:18:36.850Z,4.12
2023-04-07T13:23:53.542Z,4.32
2023-04-07T13:26:20.965Z,4.28
2023-04-07T13:28:48.687Z,4.02
2023-04-07T13:31:16.458Z,3.99
2023-04-07T13:33:44.199Z,4.13
2023-04-07T13:36:11.543Z,4.26
2023-04-07T13:38:38.873Z,4.25
2023-04-07T13:41:06.771Z,4.41
2023-04-07T13:43:34.018Z,4.54
2023-04-07T13:46:01.347Z,4.59
2023-04-07T13:48:28.600Z,4.37
2023-04-07T13:50:56.111Z,4.08
2023-04-07T13:53:23.720Z,3.70
2023-04-07T13:55:50.924Z,3.79
2023-04-07T13:58:18.376Z,3.92
2023-04-07T14:00:45.596Z,4.13
2023-04-07T14:03:13.038Z,3.85
2023-04-07T14:05:40.435Z,3.78
2023-04-07T14:08:07.852Z,4.04
2023-04-07T14:10:37.815Z,4.33
2023-04-07T14:13:05.119Z,4.46
2023-04-07T14:15:32.498Z,4.37
2023-04-07T14:18:01.052Z,4.42
2023-04-07T14:20:28.409Z,4.06
2023-04-07T14:22:55.660Z,4.01
2023-04-07T14:25:23.212Z,4.09
2023-04-07T14:27:52.365Z,4.21
2023-04-07T14:30:19.798Z,4.11
2023-04-07T14:32:46.986Z,4.52
2023-04-07T14:35:14.249Z,4.72
2023-04-07T14:37:41.649Z,4.74
2023-04-07T14:40:09.563Z,4.63
2023-04-07T14:42:37.182Z,4.28
2023-04-07T14:45:04.722Z,4.41
2023-04-07T14:47:32.062Z,4.47
2023-04-07T14:49:59.345Z,4.57
2023-04-07T14:52:27.245Z,3.93
2023-04-07T14:54:54.584Z,3.90
2023-04-07T14:57:22.479Z,4.18
2023-04-07T14:59:49.788Z,4.28
2023-04-07T15:02:17.231Z,4.06
2023-04-07T15:04:44.666Z,4.15
2023-04-07T15:07:11.975Z,4.08
2023-04-07T15:09:39.302Z,4.31
2023-04-07T15:12:06.539Z,4.15
2023-04-07T15:14:33.856Z,4.29
2023-04-07T15:17:01.093Z,4.41
2023-04-07T15:19:28.306Z,4.38
2023-04-07T15:21:55.497Z,4.51
2023-04-07T15:24:22.751Z,4.48
2023-04-07T15:26:50.159Z,4.26
2023-04-07T15:29:17.720Z,4.34
2023-04-07T15:31:45.012Z,4.45
2023-04-07T15:34:12.981Z,4.47
2023-04-07T15:36:40.791Z,4.00
2023-04-07T15:39:08.196Z,4.01
2023-04-07T15:41:35.654Z,4.20
2023-04-07T15:44:04.146Z,4.41
2023-04-07T15:46:34.338Z,4.28
2023-04-07T15:49:01.813Z,4.12
2023-04-07T15:51:30.059Z,4.17
2023-04-07T15:53:57.392Z,4.18
2023-04-07T15:56:24.966Z,3.99
2023-04-07T15:58:52.859Z,4.16
2023-04-07T16:01:20.498Z,4.10
2023-04-07T16:03:48.651Z,3.95
2023-04-07T16:06:16.271Z,4.18
2023-04-07T16:08:43.719Z,4.28
2023-04-07T16:11:11.217Z,4.29
2023-04-07T16:13:38.582Z,4.27
2023-04-07T16:16:07.792Z,4.35
2023-04-07T16:18:35.299Z,4.36
2023-04-07T16:21:04.678Z,4.32
2023-04-07T16:23:32.203Z,4.19
2023-04-07T16:25:59.862Z,4.08
2023-04-07T16:28:27.418Z,3.93
2023-04-07T16:30:54.749Z,3.76
2023-04-07T16:33:25.495Z,3.88
2023-04-07T16:35:53.353Z,3.61
2023-04-07T16:38:20.764Z,3.57
2023-04-07T16:41:00.769Z,3.57
2023-04-07T16:43:31.003Z,3.80
2023-04-07T16:46:00.214Z,3.76
2023-04-07T16:48:27.764Z,3.90
2023-04-07T16:50:55.001Z,3.71
2023-04-07T16:53:22.355Z,3.72
2023-04-07T16:55:49.592Z,3.64
2023-04-07T16:58:19.163Z,3.44
2023-04-07T17:00:46.734Z,3.16
2023-04-07T17:03:17.943Z,3.30
2023-04-07T17:05:47.169Z,3.29
2023-04-07T17:08:14.309Z,3.42
2023-04-07T17:10:41.537Z,3.05
2023-04-07T17:13:08.952Z,3.09
2023-04-07T17:15:38.064Z,3.09
2023-04-07T17:18:05.561Z,3.19
2023-04-07T17:20:32.924Z,3.08
2023-04-07T17:23:00.131Z,3.06
2023-04-07T17:25:27.396Z,3.17
2023-04-07T17:27:55.272Z,3.26
2023-04-07T17:30:22.836Z,3.22
2023-04-07T17:32:50.815Z,3.35
2023-04-07T17:35:18.381Z,3.32
2023-04-07T17:37:46.192Z,3.42
2023-04-07T17:40:13.604Z,3.33
2023-04-07T17:42:41.285Z,3.33
2023-04-07T17:45:09.470Z,3.29
2023-04-07T17:47:37.445Z,3.11
2023-04-07T17:50:05.638Z,3.23
2023-04-07T17:52:33.024Z,3.12
2023-04-07T17:55:01.776Z,3.14
2023-04-07T17:57:29.213Z,3.26
2023-04-07T17:59:56.483Z,3.24
2023-04-07T18:02:23.792Z,3.32
2023-04-07T18:04:51.079Z,3.48
2023-04-07T18:07:18.442Z,3.44
2023-04-07T18:09:45.769Z,3.41
2023-04-07T18:12:12.990Z,3.50
2023-04-07T18:14:40.462Z,3.27
2023-04-07T18:17:07.758Z,3.13
2023-04-07T18:19:35.117Z,3.14
2023-04-07T18:22:02.367Z,3.03
2023-04-07T18:24:29.670Z,3.20
2023-04-07T18:26:57.005Z,3.26
2023-04-07T18:29:24.442Z,3.51
2023-04-07T18:31:51.688Z,3.59
2023-04-07T18:34:19.040Z,3.55
2023-04-07T18:36:47.663Z,3.51
2023-04-07T18:39:15.399Z,3.65
2023-04-07T18:41:44.793Z,3.46
2023-04-07T18:44:13.140Z,3.46
2023-04-07T18:46:40.614Z,3.37
2023-04-07T18:49:08.045Z,3.33
2023-04-07T18:51:35.326Z,3.30
2023-04-07T18:54:02.590Z,3.26
2023-04-07T18:56:32.770Z,3.45
2023-04-07T18:59:00.189Z,3.46
2023-04-07T19:01:27.709Z,3.16
2023-04-07T19:03:57.198Z,3.37
2023-04-07T19:06:24.629Z,3.41
2023-04-07T19:08:52.238Z,3.26
2023-04-07T19:11:19.569Z,3.31
2023-04-07T19:13:47.014Z,3.22
2023-04-07T19:16:15.429Z,3.13
2023-04-07T19:18:42.782Z,3.28
2023-04-07T19:21:10.342Z,3.26
2023-04-07T19:23:40.200Z,3.20
2023-04-07T19:26:07.493Z,3.21
2023-04-07T19:28:34.747Z,2.96
2023-04-07T19:31:02.493Z,3.27
2023-04-07T19:33:29.624Z,3.24
2023-04-07T19:35:57.100Z,3.23
2023-04-07T19:38:24.435Z,3.32
2023-04-07T19:40:51.579Z,3.33
2023-04-07T19:43:19.017Z,3.32
2023-04-07T19:45:49.302Z,3.33
2023-04-07T19:48:17.660Z,3.43
2023-04-07T19:50:49.521Z,3.34
2023-04-07T19:53:18.012Z,3.32
2023-04-07T19:55:46.362Z,3.30
2023-04-07T19:58:13.855Z,3.42
2023-04-07T20:00:41.561Z,3.47
2023-04-07T20:03:08.873Z,3.19
2023-04-07T20:05:37.209Z,3.21
2023-04-07T20:08:04.449Z,3.21
2023-04-07T20:10:32.734Z,3.19
2023-04-07T20:13:00.009Z,3.37
2023-04-07T20:15:27.350Z,3.52
2023-04-07T20:17:54.728Z,3.49
2023-04-07T20:20:23.608Z,3.58
2023-04-07T20:22:51.288Z,3.39
2023-04-07T20:25:18.615Z,3.39
2023-04-07T20:27:49.071Z,3.47
2023-04-07T20:30:16.926Z,3.62
2023-04-07T20:32:46.220Z,3.64
2023-04-07T20:35:13.696Z,3.60
2023-04-07T20:37:40.984Z,3.54
2023-04-07T20:40:09.167Z,3.46
2023-04-07T20:42:36.785Z,3.73
2023-04-07T20:45:05.871Z,3.52
2023-04-07T20:47:35.982Z,3.41
2023-04-07T20:50:03.460Z,3.44
2023-04-07T20:52:30.775Z,3.59
2023-04-07T20:54:58.404Z,3.50
2023-04-07T20:57:26.689Z,3.74
2023-04-07T20:59:54.037Z,3.81
2023-04-07T21:02:21.579Z,3.68
2023-04-07T21:04:49.148Z,3.72
2023-04-07T21:07:16.688Z,3.59
2023-04-07T21:09:43.941Z,3.64
2023-04-07T21:12:11.256Z,3.89
2023-04-07T21:14:38.540Z,3.84
2023-04-07T21:17:05.861Z,3.90
2023-04-07T21:19:33.512Z,3.94
2023-04-07T21:22:01.105Z,4.01
2023-04-07T21:24:29.824Z,3.80
2023-04-07T21:26:57.089Z,3.80
2023-04-07T21:29:24.817Z,3.78
2023-04-07T21:31:53.255Z,3.78
2023-04-07T21:34:20.660Z,3.90
2023-04-07T21:36:47.951Z,4.13
2023-04-07T21:39:15.144Z,3.88
2023-04-07T21:41:42.355Z,3.68
2023-04-07T21:44:10.742Z,3.66
2023-04-07T21:46:38.113Z,3.61
2023-04-07T21:49:05.404Z,3.62
2023-04-07T21:51:33.774Z,3.77
2023-04-07T21:54:01.480Z,4.05
2023-04-07T21:56:29.224Z,4.01
2023-04-07T21:58:56.956Z,3.94
2023-04-07T22:01:24.669Z,3.88
2023-04-07T22:03:52.373Z,4.00
2023-04-07T22:06:19.648Z,3.94
2023-04-07T22:09:00.200Z,3.86
2023-04-07T22:11:28.750Z,3.88
2023-04-07T22:13:56.230Z,4.03
2023-04-07T22:16:23.546Z,4.12
2023-04-07T22:18:51.161Z,4.06
2023-04-07T22:21:18.444Z,3.99
2023-04-07T22:23:45.628Z,4.27
2023-04-07T22:26:13.694Z,4.44
2023-04-07T22:28:41.391Z,4.37
2023-04-07T22:31:08.642Z,4.23
2023-04-07T22:33:36.306Z,4.32
2023-04-07T22:36:04.230Z,4.36
2023-04-07T22:38:31.690Z,4.12
2023-04-07T22:40:58.791Z,3.97
2023-04-07T22:43:26.002Z,3.99
2023-04-07T22:45:53.198Z,4.02
2023-04-07T22:48:20.744Z,4.00
2023-04-07T22:50:48.069Z,4.05
2023-04-07T22:53:15.441Z,4.01
2023-04-07T22:55:42.677Z,4.03
2023-04-07T22:58:09.941Z,4.00
2023-04-07T23:00:37.143Z,4.06
2023-04-07T23:03:04.825Z,4.37
2023-04-07T23:05:32.126Z,4.08
2023-04-07T23:07:59.381Z,3.86
2023-04-07T23:10:26.695Z,3.88
2023-04-07T23:12:54.144Z,3.91
2023-04-07T23:15:22.914Z,4.02
2023-04-07T23:17:50.244Z,4.18
2023-04-07T23:20:17.854Z,4.41
2023-04-07T23:22:45.260Z,4.28
2023-04-07T23:25:12.484Z,4.28
2023-04-07T23:27:39.904Z,4.47
2023-04-07T23:30:08.267Z,4.32
2023-04-07T23:32:35.531Z,4.06
2023-04-07T23:35:02.974Z,3.97
2023-04-07T23:37:30.404Z,3.94
2023-04-07T23:39:57.650Z,4.04
2023-04-07T23:42:24.947Z,4.00
2023-04-07T23:44:52.369Z,4.08
2023-04-07T23:47:19.651Z,4.16
2023-04-07T23:49:46.898Z,4.14
2023-04-07T23:52:15.232Z,4.17
2023-04-07T23:54:42.974Z,4.20
2023-04-07T23:57:10.152Z,4.27
2023-04-07T23:59:37.377Z,4.32
